sensor_id;sensor_type;location;lat;lon;timestamp;P1;durP1;ratioP1;P2;durP2;ratioP2
28343;SDS011;15597;50.914;6.638;2024-02-16T00:01:58;3.90;;;1.35;;
28343;SDS011;15597;50.914;6.638;2024-02-16T00:04:24;3.67;;;1.50;;
28343;SDS011;15597;50.914;6.638;2024-02-16T00:06:50;3.70;;;1.52;;
28343;SDS011;15597;50.914;6.638;2024-02-16T00:09:16;5.38;;;1.70;;
28343;SDS011;15597;50.914;6.638;2024-02-16T00:11:41;5.93;;;1.92;;
28343;SDS011;15597;50.914;6.638;2024-02-16T00:14:07;5.20;;;1.90;;
28343;SDS011;15597;50.914;6.638;2024-02-16T00:16:32;5.50;;;1.67;;
28343;SDS011;15597;50.914;6.638;2024-02-16T00:18:58;4.20;;;1.50;;
28343;SDS011;15597;50.914;6.638;2024-02-16T00:21:23;4.63;;;1.70;;
28343;SDS011;15597;50.914;6.638;2024-02-16T00:23:49;3.55;;;1.60;;
28343;SDS011;15597;50.914;6.638;2024-02-16T00:26:15;4.55;;;1.70;;
28343;SDS011;15597;50.914;6.638;2024-02-16T00:28:40;5.25;;;1.65;;
28343;SDS011;15597;50.914;6.638;2024-02-16T00:31:07;3.67;;;1.30;;
28343;SDS011;15597;50.914;6.638;2024-02-16T00:33:32;4.15;;;1.70;;
28343;SDS011;15597;50.914;6.638;2024-02-16T00:35:58;4.93;;;1.52;;
28343;SDS011;15597;50.914;6.638;2024-02-16T00:38:24;4.50;;;1.33;;
28343;SDS011;15597;50.914;6.638;2024-02-16T00:40:49;3.63;;;1.58;;
28343;SDS011;15597;50.914;6.638;2024-02-16T00:43:15;3.95;;;1.60;;
28343;SDS011;15597;50.914;6.638;2024-02-16T00:45:43;4.63;;;1.77;;
28343;SDS011;15597;50.914;6.638;2024-02-16T00:48:10;4.05;;;1.70;;
28343;SDS011;15597;50.914;6.638;2024-02-16T00:50:36;5.00;;;1.58;;
28343;SDS011;15597;50.914;6.638;2024-02-16T00:53:02;4.75;;;1.95;;
28343;SDS011;15597;50.914;6.638;2024-02-16T00:55:28;4.00;;;1.50;;
28343;SDS011;15597;50.914;6.638;2024-02-16T00:57:54;3.95;;;1.50;;
28343;SDS011;15597;50.914;6.638;2024-02-16T01:00:19;4.90;;;1.55;;
28343;SDS011;15597;50.914;6.638;2024-02-16T01:02:45;3.67;;;1.33;;
28343;SDS011;15597;50.914;6.638;2024-02-16T01:05:11;4.70;;;1.50;;
28343;SDS011;15597;50.914;6.638;2024-02-16T01:07:36;5.93;;;1.90;;
28343;SDS011;15597;50.914;6.638;2024-02-16T01:10:02;4.22;;;1.70;;
28343;SDS011;15597;50.914;6.638;2024-02-16T01:12:31;3.40;;;1.42;;
28343;SDS011;15597;50.914;6.638;2024-02-16T01:14:56;6.00;;;1.70;;
28343;SDS011;15597;50.914;6.638;2024-02-16T01:17:22;3.80;;;1.42;;
28343;SDS011;15597;50.914;6.638;2024-02-16T01:19:48;4.50;;;1.70;;
28343;SDS011;15597;50.914;6.638;2024-02-16T01:22:13;3.88;;;1.45;;
28343;SDS011;15597;50.914;6.638;2024-02-16T01:24:39;4.47;;;1.63;;
28343;SDS011;15597;50.914;6.638;2024-02-16T01:27:05;3.70;;;1.42;;
28343;SDS011;15597;50.914;6.638;2024-02-16T01:29:30;6.22;;;1.50;;
28343;SDS011;15597;50.914;6.638;2024-02-16T01:31:57;5.47;;;1.63;;
28343;SDS011;15597;50.914;6.638;2024-02-16T01:34:24;5.50;;;1.60;;
28343;SDS011;15597;50.914;6.638;2024-02-16T01:36:49;6.60;;;1.92;;
28343;SDS011;15597;50.914;6.638;2024-02-16T01:39:15;6.50;;;1.55;;
28343;SDS011;15597;50.914;6.638;2024-02-16T01:41:40;6.13;;;1.80;;
28343;SDS011;15597;50.914;6.638;2024-02-16T01:44:06;4.47;;;1.70;;
28343;SDS011;15597;50.914;6.638;2024-02-16T01:46:33;4.60;;;1.70;;
28343;SDS011;15597;50.914;6.638;2024-02-16T01:48:59;4.55;;;1.67;;
28343;SDS011;15597;50.914;6.638;2024-02-16T01:51:25;6.22;;;1.77;;
28343;SDS011;15597;50.914;6.638;2024-02-16T01:53:52;4.65;;;1.83;;
28343;SDS011;15597;50.914;6.638;2024-02-16T01:56:18;5.03;;;1.80;;
28343;SDS011;15597;50.914;6.638;2024-02-16T01:58:46;4.28;;;1.70;;
28343;SDS011;15597;50.914;6.638;2024-02-16T02:01:13;3.95;;;1.50;;
28343;SDS011;15597;50.914;6.638;2024-02-16T02:03:39;4.90;;;1.67;;
28343;SDS011;15597;50.914;6.638;2024-02-16T02:06:04;6.28;;;1.48;;
28343;SDS011;15597;50.914;6.638;2024-02-16T02:08:30;4.13;;;1.63;;
28343;SDS011;15597;50.914;6.638;2024-02-16T02:10:56;4.30;;;1.67;;
28343;SDS011;15597;50.914;6.638;2024-02-16T02:13:22;5.15;;;1.90;;
28343;SDS011;15597;50.914;6.638;2024-02-16T02:15:47;6.72;;;1.92;;
28343;SDS011;15597;50.914;6.638;2024-02-16T02:18:14;5.32;;;1.77;;
28343;SDS011;15597;50.914;6.638;2024-02-16T02:20:39;4.28;;;1.63;;
28343;SDS011;15597;50.914;6.638;2024-02-16T02:23:05;6.00;;;1.55;;
28343;SDS011;15597;50.914;6.638;2024-02-16T02:25:30;4.88;;;1.80;;
28343;SDS011;15597;50.914;6.638;2024-02-16T02:27:56;5.53;;;1.67;;
28343;SDS011;15597;50.914;6.638;2024-02-16T02:30:22;4.47;;;1.70;;
28343;SDS011;15597;50.914;6.638;2024-02-16T02:32:49;4.32;;;1.73;;
28343;SDS011;15597;50.914;6.638;2024-02-16T02:35:16;4.82;;;1.85;;
28343;SDS011;15597;50.914;6.638;2024-02-16T02:37:42;4.88;;;1.83;;
28343;SDS011;15597;50.914;6.638;2024-02-16T02:40:08;4.55;;;1.77;;
28343;SDS011;15597;50.914;6.638;2024-02-16T02:42:34;6.22;;;1.70;;
28343;SDS011;15597;50.914;6.638;2024-02-16T02:45:01;4.65;;;1.70;;
28343;SDS011;15597;50.914;6.638;2024-02-16T02:47:27;4.53;;;2.00;;
28343;SDS011;15597;50.914;6.638;2024-02-16T02:49:52;4.60;;;1.73;;
28343;SDS011;15597;50.914;6.638;2024-02-16T02:52:19;4.80;;;1.90;;
28343;SDS011;15597;50.914;6.638;2024-02-16T02:54:46;4.40;;;1.95;;
28343;SDS011;15597;50.914;6.638;2024-02-16T02:57:11;4.45;;;1.70;;
28343;SDS011;15597;50.914;6.638;2024-02-16T02:59:37;5.50;;;1.55;;
28343;SDS011;15597;50.914;6.638;2024-02-16T03:02:03;4.93;;;1.70;;
28343;SDS011;15597;50.914;6.638;2024-02-16T03:04:29;4.93;;;1.65;;
28343;SDS011;15597;50.914;6.638;2024-02-16T03:06:55;4.85;;;1.85;;
28343;SDS011;15597;50.914;6.638;2024-02-16T03:09:21;5.22;;;2.08;;
28343;SDS011;15597;50.914;6.638;2024-02-16T03:11:48;4.28;;;1.80;;
28343;SDS011;15597;50.914;6.638;2024-02-16T03:14:14;3.53;;;1.52;;
28343;SDS011;15597;50.914;6.638;2024-02-16T03:16:41;4.13;;;1.50;;
28343;SDS011;15597;50.914;6.638;2024-02-16T03:19:07;4.97;;;1.92;;
28343;SDS011;15597;50.914;6.638;2024-02-16T03:21:35;5.80;;;2.08;;
28343;SDS011;15597;50.914;6.638;2024-02-16T03:24:01;4.68;;;1.77;;
28343;SDS011;15597;50.914;6.638;2024-02-16T03:26:27;6.35;;;1.70;;
28343;SDS011;15597;50.914;6.638;2024-02-16T03:28:53;6.05;;;2.00;;
28343;SDS011;15597;50.914;6.638;2024-02-16T03:31:22;4.90;;;1.98;;
28343;SDS011;15597;50.914;6.638;2024-02-16T03:33:49;6.13;;;2.00;;
28343;SDS011;15597;50.914;6.638;2024-02-16T03:36:16;5.15;;;1.77;;
28343;SDS011;15597;50.914;6.638;2024-02-16T03:38:43;4.18;;;1.80;;
28343;SDS011;15597;50.914;6.638;2024-02-16T03:41:13;4.95;;;1.98;;
28343;SDS011;15597;50.914;6.638;2024-02-16T03:43:39;5.95;;;1.80;;
28343;SDS011;15597;50.914;6.638;2024-02-16T03:46:05;3.47;;;1.70;;
28343;SDS011;15597;50.914;6.638;2024-02-16T03:48:31;4.47;;;1.70;;
28343;SDS011;15597;50.914;6.638;2024-02-16T03:50:56;5.45;;;1.80;;
28343;SDS011;15597;50.914;6.638;2024-02-16T03:53:22;5.13;;;1.60;;
28343;SDS011;15597;50.914;6.638;2024-02-16T03:55:48;7.00;;;1.70;;
28343;SDS011;15597;50.914;6.638;2024-02-16T03:58:15;7.13;;;1.77;;
28343;SDS011;15597;50.914;6.638;2024-02-16T04:00:40;8.50;;;2.10;;
28343;SDS011;15597;50.914;6.638;2024-02-16T04:03:06;4.47;;;1.75;;
28343;SDS011;15597;50.914;6.638;2024-02-16T04:05:32;4.03;;;1.60;;
28343;SDS011;15597;50.914;6.638;2024-02-16T04:08:00;4.50;;;1.63;;
28343;SDS011;15597;50.914;6.638;2024-02-16T04:12:54;6.68;;;2.17;;
28343;SDS011;15597;50.914;6.638;2024-02-16T04:15:20;4.53;;;1.73;;
28343;SDS011;15597;50.914;6.638;2024-02-16T04:17:45;5.03;;;1.80;;
28343;SDS011;15597;50.914;6.638;2024-02-16T04:20:11;6.15;;;2.13;;
28343;SDS011;15597;50.914;6.638;2024-02-16T04:22:37;4.38;;;1.60;;
28343;SDS011;15597;50.914;6.638;2024-02-16T04:25:04;5.38;;;1.70;;
28343;SDS011;15597;50.914;6.638;2024-02-16T04:27:30;3.97;;;1.92;;
28343;SDS011;15597;50.914;6.638;2024-02-16T04:29:55;3.92;;;1.50;;
28343;SDS011;15597;50.914;6.638;2024-02-16T04:32:21;4.47;;;1.80;;
28343;SDS011;15597;50.914;6.638;2024-02-16T04:34:46;4.25;;;1.70;;
28343;SDS011;15597;50.914;6.638;2024-02-16T04:37:12;6.07;;;1.80;;
28343;SDS011;15597;50.914;6.638;2024-02-16T04:39:39;4.75;;;1.80;;
28343;SDS011;15597;50.914;6.638;2024-02-16T04:42:05;5.53;;;1.92;;
28343;SDS011;15597;50.914;6.638;2024-02-16T04:44:31;5.40;;;1.85;;
28343;SDS011;15597;50.914;6.638;2024-02-16T04:46:56;4.35;;;1.90;;
28343;SDS011;15597;50.914;6.638;2024-02-16T04:49:22;5.97;;;2.00;;
28343;SDS011;15597;50.914;6.638;2024-02-16T04:51:47;8.65;;;2.08;;
28343;SDS011;15597;50.914;6.638;2024-02-16T04:54:13;7.13;;;1.92;;
28343;SDS011;15597;50.914;6.638;2024-02-16T04:56:39;4.78;;;2.00;;
28343;SDS011;15597;50.914;6.638;2024-02-16T04:59:04;5.07;;;1.98;;
28343;SDS011;15597;50.914;6.638;2024-02-16T05:01:30;4.20;;;1.83;;
28343;SDS011;15597;50.914;6.638;2024-02-16T05:03:59;5.40;;;2.00;;
28343;SDS011;15597;50.914;6.638;2024-02-16T05:06:26;6.57;;;2.20;;
28343;SDS011;15597;50.914;6.638;2024-02-16T05:08:52;5.88;;;2.53;;
28343;SDS011;15597;50.914;6.638;2024-02-16T05:11:19;9.18;;;2.53;;
28343;SDS011;15597;50.914;6.638;2024-02-16T05:13:44;5.82;;;2.42;;
28343;SDS011;15597;50.914;6.638;2024-02-16T05:16:10;6.50;;;2.20;;
28343;SDS011;15597;50.914;6.638;2024-02-16T05:18:37;6.63;;;2.20;;
28343;SDS011;15597;50.914;6.638;2024-02-16T05:21:03;4.60;;;2.08;;
28343;SDS011;15597;50.914;6.638;2024-02-16T05:23:29;7.20;;;2.05;;
28343;SDS011;15597;50.914;6.638;2024-02-16T05:25:55;4.53;;;2.00;;
28343;SDS011;15597;50.914;6.638;2024-02-16T05:28:21;5.85;;;2.08;;
28343;SDS011;15597;50.914;6.638;2024-02-16T05:30:47;4.97;;;2.15;;
28343;SDS011;15597;50.914;6.638;2024-02-16T05:33:12;4.55;;;1.92;;
28343;SDS011;15597;50.914;6.638;2024-02-16T05:35:39;5.75;;;1.85;;
28343;SDS011;15597;50.914;6.638;2024-02-16T05:38:08;5.63;;;2.10;;
28343;SDS011;15597;50.914;6.638;2024-02-16T05:40:46;4.93;;;2.10;;
28343;SDS011;15597;50.914;6.638;2024-02-16T05:43:22;6.80;;;2.13;;
28343;SDS011;15597;50.914;6.638;2024-02-16T05:45:49;6.15;;;2.08;;
28343;SDS011;15597;50.914;6.638;2024-02-16T05:48:15;7.10;;;2.17;;
28343;SDS011;15597;50.914;6.638;2024-02-16T05:50:41;7.55;;;2.28;;
28343;SDS011;15597;50.914;6.638;2024-02-16T05:53:08;7.05;;;2.20;;
28343;SDS011;15597;50.914;6.638;2024-02-16T05:55:36;6.22;;;2.25;;
28343;SDS011;15597;50.914;6.638;2024-02-16T05:58:02;5.07;;;1.98;;
28343;SDS011;15597;50.914;6.638;2024-02-16T06:00:31;5.35;;;2.22;;
28343;SDS011;15597;50.914;6.638;2024-02-16T06:02:58;5.55;;;2.00;;
28343;SDS011;15597;50.914;6.638;2024-02-16T06:05:24;6.35;;;2.10;;
28343;SDS011;15597;50.914;6.638;2024-02-16T06:07:49;5.38;;;1.85;;
28343;SDS011;15597;50.914;6.638;2024-02-16T06:10:15;5.40;;;2.03;;
28343;SDS011;15597;50.914;6.638;2024-02-16T06:12:41;6.20;;;1.95;;
28343;SDS011;15597;50.914;6.638;2024-02-16T06:15:07;6.05;;;1.88;;
28343;SDS011;15597;50.914;6.638;2024-02-16T06:17:35;5.00;;;1.77;;
28343;SDS011;15597;50.914;6.638;2024-02-16T06:20:02;4.85;;;2.05;;
28343;SDS011;15597;50.914;6.638;2024-02-16T06:22:29;4.47;;;1.90;;
28343;SDS011;15597;50.914;6.638;2024-02-16T06:24:57;4.90;;;1.92;;
28343;SDS011;15597;50.914;6.638;2024-02-16T06:27:22;5.75;;;1.80;;
28343;SDS011;15597;50.914;6.638;2024-02-16T06:29:49;4.20;;;1.80;;
28343;SDS011;15597;50.914;6.638;2024-02-16T06:32:15;5.65;;;1.90;;
28343;SDS011;15597;50.914;6.638;2024-02-16T06:34:42;4.70;;;2.05;;
28343;SDS011;15597;50.914;6.638;2024-02-16T06:37:08;6.30;;;2.20;;
28343;SDS011;15597;50.914;6.638;2024-02-16T06:39:33;4.57;;;1.90;;
28343;SDS011;15597;50.914;6.638;2024-02-16T06:41:59;3.88;;;1.75;;
28343;SDS011;15597;50.914;6.638;2024-02-16T06:44:25;4.55;;;1.92;;
28343;SDS011;15597;50.914;6.638;2024-02-16T06:46:51;5.25;;;1.92;;
28343;SDS011;15597;50.914;6.638;2024-02-16T06:49:17;5.20;;;1.90;;
28343;SDS011;15597;50.914;6.638;2024-02-16T06:51:42;6.07;;;1.80;;
28343;SDS011;15597;50.914;6.638;2024-02-16T06:54:10;4.70;;;1.65;;
28343;SDS011;15597;50.914;6.638;2024-02-16T06:56:36;5.50;;;1.88;;
28343;SDS011;15597;50.914;6.638;2024-02-16T06:59:02;4.40;;;1.77;;
28343;SDS011;15597;50.914;6.638;2024-02-16T07:01:27;5.65;;;1.90;;
28343;SDS011;15597;50.914;6.638;2024-02-16T07:03:53;4.82;;;1.92;;
28343;SDS011;15597;50.914;6.638;2024-02-16T07:06:19;6.93;;;2.05;;
28343;SDS011;15597;50.914;6.638;2024-02-16T07:08:44;9.27;;;2.22;;
28343;SDS011;15597;50.914;6.638;2024-02-16T07:11:10;6.90;;;2.20;;
28343;SDS011;15597;50.914;6.638;2024-02-16T07:13:39;6.25;;;2.08;;
28343;SDS011;15597;50.914;6.638;2024-02-16T07:16:08;4.63;;;1.80;;
28343;SDS011;15597;50.914;6.638;2024-02-16T07:18:34;4.53;;;1.80;;
28343;SDS011;15597;50.914;6.638;2024-02-16T07:21:00;6.18;;;2.03;;
28343;SDS011;15597;50.914;6.638;2024-02-16T07:23:26;7.43;;;1.80;;
28343;SDS011;15597;50.914;6.638;2024-02-16T07:25:52;5.93;;;2.17;;
28343;SDS011;15597;50.914;6.638;2024-02-16T07:28:24;4.68;;;1.88;;
28343;SDS011;15597;50.914;6.638;2024-02-16T07:30:51;5.60;;;1.80;;
28343;SDS011;15597;50.914;6.638;2024-02-16T07:33:17;6.28;;;1.80;;
28343;SDS011;15597;50.914;6.638;2024-02-16T07:35:43;5.97;;;1.73;;
28343;SDS011;15597;50.914;6.638;2024-02-16T07:38:09;4.60;;;1.85;;
28343;SDS011;15597;50.914;6.638;2024-02-16T07:40:35;4.22;;;2.03;;
28343;SDS011;15597;50.914;6.638;2024-02-16T07:43:01;4.78;;;1.73;;
28343;SDS011;15597;50.914;6.638;2024-02-16T07:45:27;6.55;;;2.13;;
28343;SDS011;15597;50.914;6.638;2024-02-16T07:47:54;4.35;;;1.83;;
28343;SDS011;15597;50.914;6.638;2024-02-16T07:50:20;4.57;;;1.95;;
28343;SDS011;15597;50.914;6.638;2024-02-16T07:52:48;5.15;;;1.85;;
28343;SDS011;15597;50.914;6.638;2024-02-16T07:55:17;5.85;;;1.92;;
28343;SDS011;15597;50.914;6.638;2024-02-16T07:57:50;4.63;;;1.70;;
28343;SDS011;15597;50.914;6.638;2024-02-16T08:00:16;5.75;;;1.90;;
28343;SDS011;15597;50.914;6.638;2024-02-16T08:02:42;5.85;;;2.25;;
28343;SDS011;15597;50.914;6.638;2024-02-16T08:05:11;3.92;;;1.70;;
28343;SDS011;15597;50.914;6.638;2024-02-16T08:07:38;8.07;;;2.15;;
28343;SDS011;15597;50.914;6.638;2024-02-16T08:10:10;5.93;;;2.10;;
28343;SDS011;15597;50.914;6.638;2024-02-16T08:12:35;4.35;;;1.80;;
28343;SDS011;15597;50.914;6.638;2024-02-16T08:15:04;6.22;;;1.77;;
28343;SDS011;15597;50.914;6.638;2024-02-16T08:17:34;4.53;;;1.60;;
28343;SDS011;15597;50.914;6.638;2024-02-16T08:20:00;4.93;;;1.60;;
28343;SDS011;15597;50.914;6.638;2024-02-16T08:22:26;5.93;;;2.10;;
28343;SDS011;15597;50.914;6.638;2024-02-16T08:24:51;5.32;;;1.90;;
28343;SDS011;15597;50.914;6.638;2024-02-16T08:27:17;5.40;;;1.90;;
28343;SDS011;15597;50.914;6.638;2024-02-16T08:29:43;4.78;;;1.80;;
28343;SDS011;15597;50.914;6.638;2024-02-16T08:32:09;5.72;;;1.80;;
28343;SDS011;15597;50.914;6.638;2024-02-16T08:34:35;4.47;;;1.60;;
28343;SDS011;15597;50.914;6.638;2024-02-16T08:37:03;5.97;;;2.20;;
28343;SDS011;15597;50.914;6.638;2024-02-16T08:39:30;7.10;;;2.70;;
28343;SDS011;15597;50.914;6.638;2024-02-16T08:41:59;4.07;;;1.70;;
28343;SDS011;15597;50.914;6.638;2024-02-16T08:44:25;5.50;;;2.28;;
28343;SDS011;15597;50.914;6.638;2024-02-16T08:46:51;4.40;;;1.80;;
28343;SDS011;15597;50.914;6.638;2024-02-16T08:49:18;6.90;;;1.58;;
28343;SDS011;15597;50.914;6.638;2024-02-16T08:51:44;3.83;;;1.48;;
28343;SDS011;15597;50.914;6.638;2024-02-16T08:54:10;5.35;;;2.10;;
28343;SDS011;15597;50.914;6.638;2024-02-16T08:56:35;6.00;;;1.92;;
28343;SDS011;15597;50.914;6.638;2024-02-16T08:59:01;6.82;;;2.13;;
28343;SDS011;15597;50.914;6.638;2024-02-16T09:01:34;6.35;;;1.95;;
28343;SDS011;15597;50.914;6.638;2024-02-16T09:04:02;5.68;;;2.17;;
28343;SDS011;15597;50.914;6.638;2024-02-16T09:06:29;5.63;;;1.70;;
28343;SDS011;15597;50.914;6.638;2024-02-16T09:08:55;4.18;;;1.50;;
28343;SDS011;15597;50.914;6.638;2024-02-16T09:11:21;5.05;;;1.70;;
28343;SDS011;15597;50.914;6.638;2024-02-16T09:13:50;4.45;;;1.75;;
28343;SDS011;15597;50.914;6.638;2024-02-16T09:16:15;8.63;;;1.92;;
28343;SDS011;15597;50.914;6.638;2024-02-16T09:18:41;5.93;;;1.73;;
28343;SDS011;15597;50.914;6.638;2024-02-16T09:21:07;5.97;;;1.92;;
28343;SDS011;15597;50.914;6.638;2024-02-16T09:23:33;4.32;;;1.75;;
28343;SDS011;15597;50.914;6.638;2024-02-16T09:25:59;3.78;;;1.52;;
28343;SDS011;15597;50.914;6.638;2024-02-16T09:28:28;6.60;;;2.20;;
28343;SDS011;15597;50.914;6.638;2024-02-16T09:30:55;5.95;;;1.73;;
28343;SDS011;15597;50.914;6.638;2024-02-16T09:33:21;6.05;;;1.92;;
28343;SDS011;15597;50.914;6.638;2024-02-16T09:35:50;6.80;;;2.10;;
28343;SDS011;15597;50.914;6.638;2024-02-16T09:38:16;3.75;;;1.60;;
28343;SDS011;15597;50.914;6.638;2024-02-16T09:40:43;6.93;;;1.90;;
28343;SDS011;15597;50.914;6.638;2024-02-16T09:43:09;4.80;;;1.65;;
28343;SDS011;15597;50.914;6.638;2024-02-16T09:45:35;7.50;;;2.20;;
28343;SDS011;15597;50.914;6.638;2024-02-16T09:48:01;5.20;;;1.90;;
28343;SDS011;15597;50.914;6.638;2024-02-16T09:50:27;6.10;;;1.65;;
28343;SDS011;15597;50.914;6.638;2024-02-16T09:52:54;6.55;;;1.80;;
28343;SDS011;15597;50.914;6.638;2024-02-16T09:55:20;4.93;;;1.70;;
28343;SDS011;15597;50.914;6.638;2024-02-16T09:57:45;4.88;;;1.65;;
28343;SDS011;15597;50.914;6.638;2024-02-16T10:00:12;6.05;;;1.98;;
28343;SDS011;15597;50.914;6.638;2024-02-16T10:02:42;4.47;;;1.65;;
28343;SDS011;15597;50.914;6.638;2024-02-16T10:05:16;4.30;;;1.75;;
28343;SDS011;15597;50.914;6.638;2024-02-16T10:07:43;4.65;;;1.83;;
28343;SDS011;15597;50.914;6.638;2024-02-16T10:12:48;3.78;;;1.60;;
28343;SDS011;15597;50.914;6.638;2024-02-16T10:15:22;5.15;;;1.92;;
28343;SDS011;15597;50.914;6.638;2024-02-16T10:18:02;5.60;;;1.90;;
28343;SDS011;15597;50.914;6.638;2024-02-16T10:20:32;6.15;;;2.00;;
28343;SDS011;15597;50.914;6.638;2024-02-16T10:23:09;4.82;;;1.90;;
28343;SDS011;15597;50.914;6.638;2024-02-16T10:25:36;6.65;;;1.95;;
28343;SDS011;15597;50.914;6.638;2024-02-16T10:28:04;4.38;;;1.60;;
28343;SDS011;15597;50.914;6.638;2024-02-16T10:30:34;5.40;;;2.03;;
28343;SDS011;15597;50.914;6.638;2024-02-16T10:33:05;4.80;;;1.98;;
28343;SDS011;15597;50.914;6.638;2024-02-16T10:35:32;3.20;;;1.48;;
28343;SDS011;15597;50.914;6.638;2024-02-16T10:38:00;4.30;;;1.80;;
28343;SDS011;15597;50.914;6.638;2024-02-16T10:40:30;4.40;;;1.67;;
28343;SDS011;15597;50.914;6.638;2024-02-16T10:42:59;4.93;;;2.05;;
28343;SDS011;15597;50.914;6.638;2024-02-16T10:45:29;4.40;;;1.55;;
28343;SDS011;15597;50.914;6.638;2024-02-16T10:47:56;5.82;;;2.05;;
28343;SDS011;15597;50.914;6.638;2024-02-16T10:50:22;4.82;;;1.48;;
28343;SDS011;15597;50.914;6.638;2024-02-16T10:52:48;12.18;;;1.92;;
28343;SDS011;15597;50.914;6.638;2024-02-16T10:55:15;7.25;;;2.10;;
28343;SDS011;15597;50.914;6.638;2024-02-16T10:57:41;6.70;;;1.70;;
28343;SDS011;15597;50.914;6.638;2024-02-16T11:00:07;9.73;;;2.15;;
28343;SDS011;15597;50.914;6.638;2024-02-16T11:02:56;4.50;;;1.70;;
28343;SDS011;15597;50.914;6.638;2024-02-16T11:05:40;4.05;;;1.60;;
28343;SDS011;15597;50.914;6.638;2024-02-16T11:08:13;3.63;;;1.60;;
28343;SDS011;15597;50.914;6.638;2024-02-16T11:10:40;4.75;;;1.88;;
28343;SDS011;15597;50.914;6.638;2024-02-16T11:13:06;6.82;;;1.70;;
28343;SDS011;15597;50.914;6.638;2024-02-16T11:15:33;4.60;;;2.00;;
28343;SDS011;15597;50.914;6.638;2024-02-16T11:18:03;5.20;;;2.35;;
28343;SDS011;15597;50.914;6.638;2024-02-16T11:20:38;6.68;;;2.28;;
28343;SDS011;15597;50.914;6.638;2024-02-16T11:23:11;3.55;;;1.65;;
28343;SDS011;15597;50.914;6.638;2024-02-16T11:25:37;4.78;;;1.80;;
28343;SDS011;15597;50.914;6.638;2024-02-16T11:28:03;4.82;;;1.70;;
28343;SDS011;15597;50.914;6.638;2024-02-16T11:30:32;4.18;;;1.77;;
28343;SDS011;15597;50.914;6.638;2024-02-16T11:32:58;9.68;;;2.50;;
28343;SDS011;15597;50.914;6.638;2024-02-16T11:35:24;6.28;;;2.15;;
28343;SDS011;15597;50.914;6.638;2024-02-16T11:37:49;3.80;;;1.70;;
28343;SDS011;15597;50.914;6.638;2024-02-16T11:40:16;4.07;;;1.70;;
28343;SDS011;15597;50.914;6.638;2024-02-16T11:42:41;3.90;;;1.70;;
28343;SDS011;15597;50.914;6.638;2024-02-16T11:45:10;3.72;;;1.73;;
28343;SDS011;15597;50.914;6.638;2024-02-16T11:47:37;7.95;;;2.13;;
28343;SDS011;15597;50.914;6.638;2024-02-16T11:50:04;7.43;;;2.20;;
28343;SDS011;15597;50.914;6.638;2024-02-16T11:52:31;7.07;;;2.08;;
28343;SDS011;15597;50.914;6.638;2024-02-16T11:54:57;6.78;;;2.03;;
28343;SDS011;15597;50.914;6.638;2024-02-16T11:57:26;8.13;;;2.80;;
28343;SDS011;15597;50.914;6.638;2024-02-16T11:59:52;9.23;;;3.50;;
28343;SDS011;15597;50.914;6.638;2024-02-16T12:02:20;16.52;;;6.03;;
28343;SDS011;15597;50.914;6.638;2024-02-16T12:04:48;5.45;;;2.13;;
28343;SDS011;15597;50.914;6.638;2024-02-16T12:07:25;14.85;;;5.65;;
28343;SDS011;15597;50.914;6.638;2024-02-16T12:09:56;10.90;;;4.97;;
28343;SDS011;15597;50.914;6.638;2024-02-16T12:12:25;9.13;;;2.90;;
28343;SDS011;15597;50.914;6.638;2024-02-16T12:14:53;6.38;;;2.65;;
28343;SDS011;15597;50.914;6.638;2024-02-16T12:17:19;8.95;;;3.00;;
28343;SDS011;15597;50.914;6.638;2024-02-16T12:19:45;9.75;;;3.25;;
28343;SDS011;15597;50.914;6.638;2024-02-16T12:22:19;9.07;;;3.20;;
28343;SDS011;15597;50.914;6.638;2024-02-16T12:24:46;5.88;;;2.20;;
28343;SDS011;15597;50.914;6.638;2024-02-16T12:27:15;5.50;;;2.28;;
28343;SDS011;15597;50.914;6.638;2024-02-16T12:29:41;13.45;;;4.85;;
28343;SDS011;15597;50.914;6.638;2024-02-16T12:32:07;7.68;;;2.70;;
28343;SDS011;15597;50.914;6.638;2024-02-16T12:34:35;7.15;;;2.67;;
28343;SDS011;15597;50.914;6.638;2024-02-16T12:39:33;7.78;;;2.85;;
28343;SDS011;15597;50.914;6.638;2024-02-16T12:42:00;6.75;;;2.88;;
28343;SDS011;15597;50.914;6.638;2024-02-16T12:44:26;5.60;;;2.65;;
28343;SDS011;15597;50.914;6.638;2024-02-16T12:46:51;6.85;;;2.72;;
28343;SDS011;15597;50.914;6.638;2024-02-16T12:49:17;7.05;;;2.60;;
28343;SDS011;15597;50.914;6.638;2024-02-16T12:51:42;8.25;;;2.45;;
28343;SDS011;15597;50.914;6.638;2024-02-16T12:54:08;8.07;;;2.70;;
28343;SDS011;15597;50.914;6.638;2024-02-16T12:56:38;10.30;;;3.42;;
28343;SDS011;15597;50.914;6.638;2024-02-16T12:59:05;11.13;;;3.47;;
28343;SDS011;15597;50.914;6.638;2024-02-16T13:01:31;11.23;;;3.78;;
28343;SDS011;15597;50.914;6.638;2024-02-16T13:03:56;10.68;;;3.80;;
28343;SDS011;15597;50.914;6.638;2024-02-16T13:06:22;14.10;;;4.13;;
28343;SDS011;15597;50.914;6.638;2024-02-16T13:08:48;9.18;;;4.07;;
28343;SDS011;15597;50.914;6.638;2024-02-16T13:11:13;8.38;;;3.47;;
28343;SDS011;15597;50.914;6.638;2024-02-16T13:13:39;7.60;;;3.33;;
28343;SDS011;15597;50.914;6.638;2024-02-16T13:16:05;7.38;;;2.75;;
28343;SDS011;15597;50.914;6.638;2024-02-16T13:18:31;9.85;;;3.10;;
28343;SDS011;15597;50.914;6.638;2024-02-16T13:20:57;7.68;;;3.53;;
28343;SDS011;15597;50.914;6.638;2024-02-16T13:23:22;10.05;;;4.60;;
28343;SDS011;15597;50.914;6.638;2024-02-16T13:25:48;8.88;;;3.78;;
28343;SDS011;15597;50.914;6.638;2024-02-16T13:28:13;7.78;;;3.20;;
28343;SDS011;15597;50.914;6.638;2024-02-16T13:30:42;7.40;;;3.25;;
28343;SDS011;15597;50.914;6.638;2024-02-16T13:33:07;8.50;;;3.40;;
28343;SDS011;15597;50.914;6.638;2024-02-16T13:35:34;9.63;;;3.97;;
28343;SDS011;15597;50.914;6.638;2024-02-16T13:38:01;9.48;;;3.88;;
28343;SDS011;15597;50.914;6.638;2024-02-16T13:40:27;8.20;;;3.50;;
28343;SDS011;15597;50.914;6.638;2024-02-16T13:42:53;7.45;;;3.08;;
28343;SDS011;15597;50.914;6.638;2024-02-16T13:45:24;9.77;;;3.30;;
28343;SDS011;15597;50.914;6.638;2024-02-16T13:47:51;10.43;;;3.60;;
28343;SDS011;15597;50.914;6.638;2024-02-16T13:50:17;9.48;;;3.20;;
28343;SDS011;15597;50.914;6.638;2024-02-16T13:52:42;10.05;;;4.05;;
28343;SDS011;15597;50.914;6.638;2024-02-16T13:55:08;9.43;;;3.25;;
28343;SDS011;15597;50.914;6.638;2024-02-16T13:57:34;8.95;;;3.72;;
28343;SDS011;15597;50.914;6.638;2024-02-16T14:00:00;9.73;;;3.58;;
28343;SDS011;15597;50.914;6.638;2024-02-16T14:02:25;10.90;;;4.78;;
28343;SDS011;15597;50.914;6.638;2024-02-16T14:04:51;12.43;;;5.10;;
28343;SDS011;15597;50.914;6.638;2024-02-16T14:07:17;10.45;;;4.43;;
28343;SDS011;15597;50.914;6.638;2024-02-16T14:09:43;9.35;;;4.25;;
28343;SDS011;15597;50.914;6.638;2024-02-16T14:12:08;9.77;;;3.65;;
28343;SDS011;15597;50.914;6.638;2024-02-16T14:14:34;7.82;;;4.03;;
28343;SDS011;15597;50.914;6.638;2024-02-16T14:16:59;7.68;;;4.15;;
28343;SDS011;15597;50.914;6.638;2024-02-16T14:19:25;10.55;;;4.13;;
28343;SDS011;15597;50.914;6.638;2024-02-16T14:21:51;12.65;;;5.72;;
28343;SDS011;15597;50.914;6.638;2024-02-16T14:24:17;10.18;;;4.50;;
28343;SDS011;15597;50.914;6.638;2024-02-16T14:26:43;10.25;;;4.20;;
28343;SDS011;15597;50.914;6.638;2024-02-16T14:29:08;9.73;;;4.07;;
28343;SDS011;15597;50.914;6.638;2024-02-16T14:31:36;12.55;;;4.75;;
28343;SDS011;15597;50.914;6.638;2024-02-16T14:34:02;11.15;;;4.07;;
28343;SDS011;15597;50.914;6.638;2024-02-16T14:36:27;9.27;;;3.63;;
28343;SDS011;15597;50.914;6.638;2024-02-16T14:38:53;11.07;;;3.88;;
28343;SDS011;15597;50.914;6.638;2024-02-16T14:41:19;7.93;;;4.20;;
28343;SDS011;15597;50.914;6.638;2024-02-16T14:43:44;11.65;;;4.60;;
28343;SDS011;15597;50.914;6.638;2024-02-16T14:46:10;9.13;;;3.85;;
28343;SDS011;15597;50.914;6.638;2024-02-16T14:48:36;7.22;;;3.28;;
28343;SDS011;15597;50.914;6.638;2024-02-16T14:51:02;8.20;;;3.65;;
28343;SDS011;15597;50.914;6.638;2024-02-16T14:53:30;10.57;;;4.38;;